Time;durP1;ratioP1;P1;durP2;ratioP2;P2;SDS_P1;SDS_P2;PMS_P1;PMS_P2;Temp;Humidity;BMP_temperature;BMP_pressure;BME280_temperature;BME280_humidity;BME280_pressure;Samples;Min_cycle;Max_cycle;Signal;HPM_P1;HPM_P2
2022/07/17 00:01:58;;;;;;;1.47;1.37;;;17.20;48.60;;;;;;938341;150;27265;-77
2022/07/17 00:04:24;;;;;;;2.67;1.33;;;17.20;48.80;;;;;;937874;150;27441;-77
2022/07/17 00:06:51;;;;;;;1.57;1.40;;;17.10;49.00;;;;;;938354;149;27414;-76
2022/07/17 00:09:17;;;;;;;3.27;1.70;;;17.10;49.10;;;;;;938895;150;27435;-78
2022/07/17 00:11:44;;;;;;;2.87;1.70;;;17.00;49.20;;;;;;938643;149;27340;-77
2022/07/17 00:14:11;;;;;;;2.47;1.67;;;16.90;49.40;;;;;;935527;151;27352;-77
2022/07/17 00:16:37;;;;;;;2.03;1.40;;;16.90;49.40;;;;;;936011;151;27456;-77
2022/07/17 00:19:04;;;;;;;1.53;1.30;;;16.80;49.60;;;;;;935958;151;27329;-77
2022/07/17 00:21:30;;;;;;;1.50;1.40;;;16.80;49.90;;;;;;935701;151;27383;-78
2022/07/17 00:23:57;;;;;;;1.37;1.20;;;16.70;50.10;;;;;;935482;151;27454;-78
2022/07/17 00:26:24;;;;;;;2.93;1.20;;;16.60;50.10;;;;;;930967;149;27341;-78
2022/07/17 00:28:50;;;;;;;1.40;1.30;;;16.60;50.20;;;;;;932266;152;27291;-78
2022/07/17 00:31:17;;;;;;;1.80;1.40;;;16.50;50.30;;;;;;932079;149;27434;-77
2022/07/17 00:33:43;;;;;;;2.10;1.50;;;16.50;50.50;;;;;;932306;152;27424;-78
2022/07/17 00:36:10;;;;;;;1.33;1.13;;;16.40;50.60;;;;;;931182;152;27342;-77
2022/07/17 00:38:37;;;;;;;2.47;1.37;;;16.40;50.80;;;;;;932917;152;27350;-78
2022/07/17 00:41:03;;;;;;;1.60;1.50;;;16.30;50.90;;;;;;931874;152;27359;-78
2022/07/17 00:43:30;;;;;;;3.00;1.23;;;16.20;51.00;;;;;;925636;151;27496;-78
2022/07/17 00:45:56;;;;;;;1.73;1.20;;;16.20;51.20;;;;;;925018;155;27387;-78
2022/07/17 00:48:23;;;;;;;1.60;1.50;;;16.10;51.30;;;;;;939035;152;27354;-77
2022/07/17 00:50:49;;;;;;;3.30;1.70;;;16.10;51.50;;;;;;917285;154;27315;-78
2022/07/17 00:53:16;;;;;;;3.00;1.70;;;16.00;51.50;;;;;;939855;151;27462;-77
2022/07/17 00:55:43;;;;;;;1.77;1.63;;;16.00;52.40;;;;;;940330;152;27309;-78
2022/07/17 00:58:09;;;;;;;2.03;1.60;;;15.90;51.90;;;;;;939866;152;27891;-77
2022/07/17 01:00:36;;;;;;;1.97;1.77;;;15.80;52.00;;;;;;939472;152;27414;-79
2022/07/17 01:03:03;;;;;;;3.60;2.00;;;15.80;52.10;;;;;;924123;155;27330;-79
2022/07/17 01:05:29;;;;;;;3.40;2.20;;;15.70;52.20;;;;;;939805;152;27371;-79
2022/07/17 01:07:56;;;;;;;8.23;2.93;;;15.70;52.30;;;;;;928620;154;27292;-77
2022/07/17 01:10:22;;;;;;;5.50;3.27;;;15.60;52.50;;;;;;923299;154;27494;-79
2022/07/17 01:12:49;;;;;;;3.83;3.40;;;15.60;52.70;;;;;;931953;152;27337;-78
2022/07/17 01:15:15;;;;;;;3.23;2.37;;;15.50;52.70;;;;;;925321;155;27316;-78
2022/07/17 01:17:42;;;;;;;3.37;2.43;;;15.40;52.90;;;;;;934936;151;27300;-78
2022/07/17 01:20:09;;;;;;;5.03;3.03;;;15.40;53.00;;;;;;934057;150;27325;-78
2022/07/17 01:22:44;;;;;;;3.33;2.87;;;15.30;53.20;;;;;;925185;155;27343;-77
2022/07/17 01:25:10;;;;;;;5.00;3.27;;;15.20;53.20;;;;;;924976;154;27447;-78
2022/07/17 01:27:37;;;;;;;4.73;3.50;;;15.10;53.20;;;;;;924741;155;27519;-79
2022/07/17 01:30:04;;;;;;;2.97;2.23;;;15.10;53.40;;;;;;925266;153;27330;-79
2022/07/17 01:32:36;;;;;;;2.57;1.80;;;15.00;53.60;;;;;;925018;155;27287;-78
2022/07/17 01:35:02;;;;;;;3.43;2.23;;;14.90;53.80;;;;;;925200;155;27760;-78
2022/07/17 01:37:29;;;;;;;2.00;1.80;;;14.80;53.90;;;;;;940052;151;27353;-79
2022/07/17 01:39:55;;;;;;;1.57;1.47;;;14.70;53.90;;;;;;917380;154;27433;-79
2022/07/17 01:42:22;;;;;;;3.13;1.67;;;14.70;54.00;;;;;;918552;153;27388;-78
2022/07/17 01:44:49;;;;;;;2.27;1.27;;;14.60;54.20;;;;;;942087;151;27417;-77
2022/07/17 01:47:15;;;;;;;2.50;1.30;;;14.50;54.30;;;;;;942007;151;27392;-79
2022/07/17 01:49:45;;;;;;;1.70;1.13;;;14.50;54.50;;;;;;921371;154;27302;-78
2022/07/17 01:52:11;;;;;;;2.60;1.83;;;14.40;54.70;;;;;;941234;151;27364;-78
2022/07/17 01:54:38;;;;;;;1.60;1.50;;;14.40;54.70;;;;;;941642;150;27389;-78
2022/07/17 01:57:04;;;;;;;2.00;1.90;;;14.30;54.90;;;;;;941042;151;27347;-77
2022/07/17 01:59:31;;;;;;;1.83;1.20;;;14.30;55.00;;;;;;925203;153;27394;-78
2022/07/17 02:01:57;;;;;;;2.37;1.60;;;14.20;55.10;;;;;;917924;154;27422;-79
2022/07/17 02:04:24;;;;;;;1.30;1.20;;;14.20;55.30;;;;;;918092;153;27373;-78
2022/07/17 02:06:51;;;;;;;1.60;1.50;;;14.10;55.40;;;;;;931626;151;27334;-79
2022/07/17 02:09:17;;;;;;;2.70;1.77;;;14.10;55.60;;;;;;931409;152;28309;-77
2022/07/17 02:11:44;;;;;;;1.50;1.40;;;14.00;55.20;;;;;;931694;152;27354;-79
2022/07/17 02:14:10;;;;;;;1.67;1.40;;;14.00;55.90;;;;;;931586;152;27939;-79
2022/07/17 02:16:37;;;;;;;1.40;1.30;;;13.90;56.00;;;;;;931527;152;27336;-74
2022/07/17 02:19:03;;;;;;;3.83;1.87;;;13.90;56.00;;;;;;936448;150;27627;-74
2022/07/17 02:21:30;;;;;;;2.53;1.53;;;13.90;56.10;;;;;;931452;152;27397;-74
2022/07/17 02:23:57;;;;;;;5.63;1.53;;;13.80;56.30;;;;;;925453;152;27392;-73
2022/07/17 02:26:23;;;;;;;1.50;1.40;;;13.80;56.30;;;;;;918099;153;27441;-74
2022/07/17 02:28:50;;;;;;;2.23;1.53;;;13.80;56.40;;;;;;936681;150;27328;-74
2022/07/17 02:31:16;;;;;;;1.33;1.20;;;13.70;56.50;;;;;;925282;155;27322;-74
2022/07/17 02:33:43;;;;;;;1.77;1.67;;;13.70;56.70;;;;;;937051;151;27422;-75
2022/07/17 02:36:10;;;;;;;2.23;1.33;;;13.70;57.00;;;;;;917876;152;27329;-76
2022/07/17 02:38:36;;;;;;;1.40;1.30;;;13.70;57.10;;;;;;941661;151;27336;-74
2022/07/17 02:41:03;;;;;;;1.67;1.43;;;13.60;57.00;;;;;;941083;151;27362;-74
2022/07/17 02:43:29;;;;;;;2.23;1.40;;;13.60;57.10;;;;;;933083;151;27438;-74
2022/07/17 02:45:59;;;;;;;1.70;1.60;;;13.60;57.20;;;;;;923426;155;27277;-77
2022/07/17 02:48:23;;;;;;;1.70;1.60;;;13.60;57.30;;;;;;938708;152;27364;-77
2022/07/17 02:50:49;;;;;;;1.80;1.63;;;13.60;57.40;;;;;;919553;152;27454;-76
2022/07/17 02:53:16;;;;;;;2.87;1.50;;;13.60;57.50;;;;;;919309;154;27310;-76
2022/07/17 02:55:42;;;;;;;1.90;1.40;;;13.60;57.60;;;;;;934377;151;27326;-77
2022/07/17 02:58:09;;;;;;;1.73;1.50;;;13.50;57.60;;;;;;925093;153;27392;-76
2022/07/17 03:00:35;;;;;;;1.50;1.40;;;13.50;57.60;;;;;;924593;155;27320;-76
2022/07/17 03:03:02;;;;;;;1.87;1.60;;;13.50;57.90;;;;;;925346;153;27350;-76
2022/07/17 03:05:29;;;;;;;1.43;1.33;;;13.40;57.80;;;;;;924723;155;27892;-76
2022/07/17 03:07:55;;;;;;;1.77;1.67;;;13.40;57.90;;;;;;933668;151;27329;-77
2022/07/17 03:10:22;;;;;;;1.87;1.47;;;13.40;58.00;;;;;;925168;154;27488;-76
2022/07/17 03:12:48;;;;;;;1.50;1.40;;;13.30;58.10;;;;;;925379;155;27397;-76
2022/07/17 03:15:15;;;;;;;3.17;1.67;;;13.30;58.10;;;;;;923693;152;27481;-76
2022/07/17 03:17:42;;;;;;;1.90;1.50;;;13.30;58.60;;;;;;926308;152;27497;-76
2022/07/17 03:20:08;;;;;;;2.80;1.83;;;13.20;58.60;;;;;;931918;152;27427;-77
2022/07/17 03:22:35;;;;;;;2.33;1.70;;;13.20;58.60;;;;;;916580;155;27319;-76
2022/07/17 03:25:02;;;;;;;1.53;1.43;;;13.20;58.80;;;;;;917007;154;27347;-76
2022/07/17 03:27:28;;;;;;;1.60;1.50;;;13.20;59.00;;;;;;917527;155;27526;-76
2022/07/17 03:29:55;;;;;;;2.13;1.50;;;13.20;59.10;;;;;;940301;152;27447;-77
2022/07/17 03:32:21;;;;;;;1.70;1.60;;;13.20;59.30;;;;;;939839;152;27344;-77
2022/07/17 03:34:48;;;;;;;2.27;1.87;;;13.20;59.30;;;;;;939799;152;27426;-77
2022/07/17 03:37:14;;;;;;;2.17;1.30;;;13.20;59.40;;;;;;939194;152;27278;-76
2022/07/17 03:39:41;;;;;;;1.67;1.37;;;13.30;59.40;;;;;;939814;152;27410;-76
2022/07/17 03:42:08;;;;;;;2.30;1.60;;;13.20;59.40;;;;;;939069;151;27348;-76
2022/07/17 03:44:34;;;;;;;1.80;1.70;;;13.30;59.60;;;;;;941743;148;27464;-76
2022/07/17 03:47:01;;;;;;;3.80;1.93;;;13.20;59.70;;;;;;944951;149;27323;-76
2022/07/17 03:49:27;;;;;;;4.83;1.57;;;13.20;60.00;;;;;;945330;149;27685;-76
2022/07/17 03:51:54;;;;;;;3.20;2.77;;;13.20;60.40;;;;;;946213;149;27380;-76
2022/07/17 03:54:21;;;;;;;3.10;2.10;;;13.30;60.90;;;;;;946046;151;27268;-76
2022/07/17 03:56:47;;;;;;;2.77;2.00;;;13.30;61.20;;;;;;945913;151;27367;-77
2022/07/17 03:59:14;;;;;;;3.50;3.20;;;13.30;61.40;;;;;;944995;151;27356;-76
2022/07/17 04:01:40;;;;;;;2.83;2.23;;;13.30;61.30;;;;;;946469;151;27316;-76
2022/07/17 04:04:07;;;;;;;2.57;2.03;;;13.40;61.50;;;;;;945880;151;27356;-76
2022/07/17 04:06:33;;;;;;;1.83;1.73;;;13.40;61.60;;;;;;946152;151;27388;-77
2022/07/17 04:09:00;;;;;;;2.43;1.77;;;13.40;61.50;;;;;;946396;151;27457;-76
2022/07/17 04:11:27;;;;;;;2.33;2.10;;;13.50;62.40;;;;;;945983;151;27499;-76
2022/07/17 04:13:53;;;;;;;3.77;2.23;;;13.50;61.70;;;;;;946343;151;27324;-76
2022/07/17 04:16:20;;;;;;;2.07;1.57;;;13.50;61.60;;;;;;946203;150;27309;-76
2022/07/17 04:18:46;;;;;;;3.00;2.37;;;13.60;61.60;;;;;;946297;151;27817;-76
2022/07/17 04:21:13;;;;;;;2.23;1.80;;;13.60;61.90;;;;;;938116;153;27382;-76
2022/07/17 04:23:40;;;;;;;2.10;1.80;;;13.70;61.90;;;;;;938286;153;27397;-76
2022/07/17 04:26:06;;;;;;;4.03;1.90;;;13.70;61.90;;;;;;937810;153;27340;-76
2022/07/17 04:28:33;;;;;;;2.00;1.80;;;13.80;61.90;;;;;;937568;152;27426;-76
2022/07/17 04:30:59;;;;;;;2.93;1.97;;;13.80;62.90;;;;;;938238;152;27357;-76
2022/07/17 04:33:26;;;;;;;1.90;1.80;;;13.90;62.20;;;;;;938030;150;27460;-76
2022/07/17 04:35:53;;;;;;;2.73;1.90;;;13.90;62.20;;;;;;929990;151;27381;-76
2022/07/17 04:38:19;;;;;;;2.70;1.53;;;14.00;62.30;;;;;;923995;153;27352;-76
2022/07/17 04:40:48;;;;;;;2.70;1.57;;;14.10;62.40;;;;;;924755;154;27423;-76
2022/07/17 04:43:12;;;;;;;3.00;1.60;;;14.20;62.40;;;;;;944465;151;27276;-76
2022/07/17 04:45:39;;;;;;;4.40;1.80;;;14.20;62.20;;;;;;930548;151;27384;-76
2022/07/17 04:48:05;;;;;;;1.80;1.40;;;14.30;62.30;;;;;;948536;150;27707;-75
2022/07/17 04:50:32;;;;;;;1.40;1.30;;;14.40;62.90;;;;;;948099;151;27445;-76
2022/07/17 04:53:00;;;;;;;1.80;1.23;;;14.50;62.10;;;;;;948343;148;27362;-76
2022/07/17 04:55:25;;;;;;;1.60;1.50;;;14.60;62.00;;;;;;947138;151;27384;-76
2022/07/17 04:57:52;;;;;;;2.80;1.40;;;14.70;62.10;;;;;;948695;151;27269;-75
2022/07/17 05:00:18;;;;;;;1.50;1.40;;;14.90;62.30;;;;;;948245;150;27346;-76
2022/07/17 05:02:45;;;;;;;2.60;1.30;;;15.10;62.50;;;;;;948540;151;27376;-76
2022/07/17 05:05:12;;;;;;;1.65;1.55;;;15.40;63.80;;;;;;948189;151;27364;-76
2022/07/17 05:07:38;;;;;;;1.80;1.37;;;15.80;63.70;;;;;;948414;151;27351;-76
2022/07/17 05:10:05;;;;;;;1.62;1.10;;;16.30;64.40;;;;;;948497;151;27317;-76
2022/07/17 05:12:31;;;;;;;2.67;1.20;;;17.00;64.60;;;;;;948494;149;27343;-75
2022/07/17 05:14:58;;;;;;;1.25;1.10;;;17.80;64.50;;;;;;948742;149;27315;-76
2022/07/17 05:17:25;;;;;;;1.52;1.37;;;18.70;64.60;;;;;;948359;151;27756;-76
2022/07/17 05:19:51;;;;;;;1.60;1.22;;;19.60;62.70;;;;;;948103;151;27312;-76
2022/07/17 05:22:18;;;;;;;1.15;1.05;;;20.50;61.30;;;;;;935910;150;27897;-76
2022/07/17 05:24:44;;;;;;;1.55;1.00;;;21.40;59.90;;;;;;938423;151;27286;-76
2022/07/17 05:27:11;;;;;;;1.12;0.90;;;22.20;58.80;;;;;;955118;148;27432;-77
2022/07/17 05:29:38;;;;;;;1.20;1.10;;;23.10;57.60;;;;;;956393;148;27405;-76
2022/07/17 05:32:04;;;;;;;1.45;1.15;;;23.90;56.20;;;;;;955440;148;27249;-76
2022/07/17 05:34:31;;;;;;;1.45;1.07;;;24.70;54.80;;;;;;954852;148;27362;-76
2022/07/17 05:36:57;;;;;;;1.27;0.85;;;25.50;53.60;;;;;;955815;148;27316;-76
2022/07/17 05:39:24;;;;;;;2.45;0.98;;;26.20;52.70;;;;;;951179;148;27427;-77
2022/07/17 05:41:50;;;;;;;1.10;1.00;;;26.80;51.70;;;;;;951144;148;27442;-77
2022/07/17 05:44:17;;;;;;;0.90;0.90;;;27.50;50.80;;;;;;951600;148;28597;-76
2022/07/17 05:46:44;;;;;;;1.02;0.82;;;28.20;49.80;;;;;;940760;149;27350;-77
2022/07/17 05:49:10;;;;;;;0.85;0.80;;;28.70;49.00;;;;;;938628;149;27366;-76
2022/07/17 05:51:37;;;;;;;1.30;0.88;;;29.30;47.90;;;;;;916346;153;27471;-77
2022/07/17 05:54:03;;;;;;;1.55;1.07;;;29.80;47.00;;;;;;929682;152;28142;-77
2022/07/17 05:56:30;;;;;;;2.10;0.90;;;30.40;46.20;;;;;;936351;150;27457;-77
2022/07/17 05:58:57;;;;;;;2.95;1.25;;;30.80;45.40;;;;;;938908;149;27309;-77
2022/07/17 06:01:23;;;;;;;0.95;0.90;;;31.30;44.60;;;;;;936432;150;27400;-77
2022/07/17 06:03:50;;;;;;;1.12;1.10;;;31.80;43.90;;;;;;937974;150;27410;-77
2022/07/17 06:06:16;;;;;;;0.80;0.65;;;32.30;43.10;;;;;;937368;149;27363;-77
2022/07/17 06:08:43;;;;;;;2.37;0.93;;;32.70;42.50;;;;;;939387;150;27329;-77
2022/07/17 06:11:09;;;;;;;2.20;0.82;;;33.10;41.90;;;;;;934960;151;27330;-77
2022/07/17 06:13:36;;;;;;;1.32;1.15;;;33.60;41.40;;;;;;935590;151;27336;-77
2022/07/17 06:16:03;;;;;;;1.00;0.90;;;34.00;40.30;;;;;;919326;152;27407;-77
2022/07/17 06:18:29;;;;;;;1.05;0.80;;;34.30;39.70;;;;;;928511;150;27428;-77
2022/07/17 06:20:56;;;;;;;1.65;1.05;;;34.70;39.10;;;;;;934189;152;27825;-77
2022/07/17 06:23:22;;;;;;;0.53;0.53;;;35.00;38.60;;;;;;933116;151;27358;-76
2022/07/17 06:25:49;;;;;;;1.47;0.98;;;35.40;38.00;;;;;;935281;151;27362;-77
2022/07/17 06:28:16;;;;;;;1.77;0.65;;;35.60;37.60;;;;;;934157;151;27322;-77
2022/07/17 06:30:42;;;;;;;1.52;0.70;;;36.00;37.10;;;;;;934570;151;26354;-77
2022/07/17 06:33:09;;;;;;;1.98;1.07;;;36.30;37.00;;;;;;933721;152;26300;-77
2022/07/17 06:35:35;;;;;;;1.22;0.68;;;36.60;35.90;;;;;;934694;151;27359;-77
2022/07/17 06:38:02;;;;;;;1.17;0.88;;;36.80;35.40;;;;;;933683;151;26246;-77
2022/07/17 06:40:29;;;;;;;1.75;0.80;;;37.00;35.00;;;;;;935004;151;27345;-77
2022/07/17 06:42:55;;;;;;;0.70;0.70;;;37.20;34.80;;;;;;935318;151;26358;-77
2022/07/17 06:45:22;;;;;;;1.50;0.98;;;37.50;34.70;;;;;;935494;151;26387;-77
2022/07/17 06:47:48;;;;;;;1.12;0.85;;;37.90;33.70;;;;;;949225;148;26327;-77
2022/07/17 06:50:15;;;;;;;0.78;0.78;;;38.10;33.20;;;;;;932275;151;26292;-77
2022/07/17 06:52:41;;;;;;;0.93;0.88;;;38.30;32.40;;;;;;949511;148;26318;-77
2022/07/17 06:55:08;;;;;;;1.05;0.90;;;38.50;32.20;;;;;;950042;151;26560;-77
2022/07/17 06:57:35;;;;;;;1.20;1.10;;;38.60;31.80;;;;;;951386;148;26312;-77
2022/07/17 07:00:01;;;;;;;1.07;0.75;;;38.80;31.70;;;;;;951616;148;26246;-77
2022/07/17 07:02:28;;;;;;;1.95;1.15;;;39.00;31.60;;;;;;950399;148;26262;-77
2022/07/17 07:04:54;;;;;;;2.08;1.20;;;39.20;31.40;;;;;;950195;148;26202;-77
2022/07/17 07:07:21;;;;;;;2.67;1.10;;;39.50;30.90;;;;;;944103;150;27800;-77
2022/07/17 07:09:48;;;;;;;2.55;0.82;;;39.80;30.60;;;;;;942507;150;26235;-77
2022/07/17 07:12:14;;;;;;;0.80;0.60;;;40.20;30.20;;;;;;940548;150;26377;-77
2022/07/17 07:14:41;;;;;;;1.40;0.78;;;40.50;30.50;;;;;;942778;150;26295;-77
2022/07/17 07:17:07;;;;;;;0.80;0.72;;;40.80;29.70;;;;;;940172;150;26227;-77
2022/07/17 07:19:34;;;;;;;0.70;0.70;;;41.10;29.40;;;;;;936169;150;26332;-77
2022/07/17 07:22:01;;;;;;;1.35;0.85;;;41.50;29.10;;;;;;950693;148;26207;-77
2022/07/17 07:24:27;;;;;;;0.60;0.60;;;41.80;28.70;;;;;;942455;150;26276;-77
2022/07/17 07:26:54;;;;;;;2.30;1.12;;;42.10;28.40;;;;;;942127;150;26339;-77
2022/07/17 07:29:20;;;;;;;3.62;0.80;;;42.30;27.90;;;;;;933978;151;26400;-78
2022/07/17 07:31:47;;;;;;;1.02;0.90;;;42.60;28.00;;;;;;948558;150;26683;-78
2022/07/17 07:34:14;;;;;;;1.37;0.80;;;42.80;27.50;;;;;;948837;151;26321;-78
2022/07/17 07:36:40;;;;;;;1.55;0.98;;;43.10;27.40;;;;;;948675;151;26596;-76
2022/07/17 07:39:07;;;;;;;0.95;0.80;;;43.20;27.00;;;;;;936146;151;26301;-76
2022/07/17 07:41:33;;;;;;;2.45;0.75;;;43.50;26.50;;;;;;938580;150;26365;-76
2022/07/17 07:44:00;;;;;;;0.80;0.80;;;43.70;26.40;;;;;;940544;150;26243;-76
2022/07/17 07:46:26;;;;;;;0.68;0.60;;;43.90;26.20;;;;;;951048;150;26303;-76
2022/07/17 07:48:53;;;;;;;1.77;0.90;;;43.90;25.90;;;;;;937933;150;26277;-76
2022/07/17 07:51:20;;;;;;;0.70;0.62;;;44.00;25.70;;;;;;937448;150;26427;-76
2022/07/17 07:53:46;;;;;;;2.45;0.70;;;44.10;25.70;;;;;;953941;148;26255;-76
2022/07/17 07:56:13;;;;;;;1.10;0.80;;;44.20;25.40;;;;;;943480;150;26217;-76
2022/07/17 07:58:39;;;;;;;2.25;0.90;;;44.30;25.30;;;;;;942165;150;26244;-76
2022/07/17 08:01:06;;;;;;;1.57;0.82;;;44.40;25.20;;;;;;939951;150;26224;-76
2022/07/17 08:03:33;;;;;;;0.93;0.78;;;44.60;24.90;;;;;;956628;148;26204;-76
2022/07/17 08:05:59;;;;;;;0.95;0.70;;;44.80;24.60;;;;;;947999;150;26372;-76
2022/07/17 08:08:26;;;;;;;1.05;0.88;;;44.80;24.60;;;;;;956224;148;26270;-76
2022/07/17 08:10:52;;;;;;;3.22;0.60;;;45.00;24.50;;;;;;934232;151;26233;-76
2022/07/17 08:13:19;;;;;;;0.65;0.60;;;45.10;24.30;;;;;;953403;150;26166;-76
2022/07/17 08:15:46;;;;;;;1.20;0.70;;;45.20;24.30;;;;;;953845;150;26324;-76
2022/07/17 08:18:12;;;;;;;2.17;1.10;;;45.40;24.20;;;;;;953787;147;26343;-76
2022/07/17 08:20:39;;;;;;;1.52;0.80;;;45.50;24.00;;;;;;940450;150;26372;-76
2022/07/17 08:23:05;;;;;;;1.25;0.80;;;45.70;23.70;;;;;;940470;150;26285;-76
2022/07/17 08:25:32;;;;;;;5.12;1.07;;;45.90;23.60;;;;;;940843;150;26316;-76
2022/07/17 08:27:58;;;;;;;0.50;0.50;;;46.10;24.00;;;;;;942077;150;26175;-76
2022/07/17 08:30:25;;;;;;;2.17;0.95;;;46.30;23.40;;;;;;953127;150;26305;-76
2022/07/17 08:32:52;;;;;;;1.37;0.80;;;46.40;23.10;;;;;;953225;150;26259;-77
2022/07/17 08:35:19;;;;;;;1.22;0.98;;;46.60;22.80;;;;;;953466;150;26269;-78
2022/07/17 08:37:48;;;;;;;1.05;0.55;;;46.80;22.60;;;;;;953465;150;26156;-77
2022/07/17 08:40:20;;;;;;;1.77;0.80;;;46.90;22.60;;;;;;953352;150;26360;-76
2022/07/17 08:42:46;;;;;;;1.67;0.70;;;47.10;22.30;;;;;;952944;150;26244;-77
2022/07/17 08:45:13;;;;;;;0.90;0.65;;;47.20;22.00;;;;;;953330;150;26204;-77
2022/07/17 08:47:40;;;;;;;1.42;0.53;;;47.40;21.70;;;;;;949382;150;26241;-77
2022/07/17 08:50:06;;;;;;;0.85;0.68;;;47.40;21.70;;;;;;937716;152;26378;-76
2022/07/17 08:52:33;;;;;;;0.95;0.60;;;47.30;21.60;;;;;;938019;150;26204;-76
2022/07/17 08:54:59;;;;;;;0.75;0.60;;;47.30;21.60;;;;;;938992;152;26327;-78
2022/07/17 08:57:26;;;;;;;1.10;0.75;;;47.30;21.60;;;;;;937406;152;26818;-77
2022/07/17 08:59:53;;;;;;;1.10;0.60;;;47.40;21.60;;;;;;937902;152;26808;-77
2022/07/17 09:02:19;;;;;;;1.20;0.80;;;47.40;21.30;;;;;;938183;152;26199;-77
2022/07/17 09:04:54;;;;;;;1.62;0.60;;;47.60;21.20;;;;;;931496;150;26186;-78
2022/07/17 09:07:21;;;;;;;1.22;0.70;;;47.70;21.00;;;;;;916721;153;26290;-78
2022/07/17 09:09:53;;;;;;;0.82;0.75;;;47.70;21.10;;;;;;917563;153;26283;-77
2022/07/17 09:12:26;;;;;;;2.00;0.57;;;47.80;20.90;;;;;;918997;153;26255;-78
2022/07/17 09:14:52;;;;;;;3.05;0.90;;;47.80;20.60;;;;;;929872;152;26181;-77
2022/07/17 09:17:19;;;;;;;0.53;0.47;;;47.80;20.70;;;;;;929456;152;26270;-76
2022/07/17 09:19:45;;;;;;;3.05;1.10;;;47.70;20.70;;;;;;931477;152;26356;-77
2022/07/17 09:22:12;;;;;;;2.72;0.98;;;47.60;20.60;;;;;;931666;150;26239;-78
2022/07/17 09:24:44;;;;;;;1.00;0.55;;;47.60;20.70;;;;;;919704;152;26527;-78
2022/07/17 09:27:08;;;;;;;1.25;0.80;;;47.60;20.40;;;;;;929356;149;26291;-78
2022/07/17 09:29:35;;;;;;;1.82;0.60;;;47.60;20.40;;;;;;922111;152;26285;-78
2022/07/17 09:32:01;;;;;;;1.05;0.60;;;47.50;20.20;;;;;;938659;150;26265;-77
2022/07/17 09:34:28;;;;;;;1.25;0.70;;;47.40;20.40;;;;;;937698;151;26319;-77
2022/07/17 09:37:00;;;;;;;2.33;1.10;;;47.40;20.30;;;;;;937382;151;26204;-77
2022/07/17 09:39:42;;;;;;;1.17;0.60;;;47.30;20.30;;;;;;938526;150;26267;-76
2022/07/17 09:42:06;;;;;;;1.27;0.90;;;47.40;20.20;;;;;;937405;151;26276;-77
2022/07/17 09:44:32;;;;;;;1.05;0.80;;;47.40;20.10;;;;;;937682;151;26384;-77
2022/07/17 09:46:59;;;;;;;1.15;0.80;;;47.40;20.00;;;;;;936869;151;26920;-77
2022/07/17 09:49:25;;;;;;;1.10;0.55;;;47.40;20.00;;;;;;937054;151;26296;-76
2022/07/17 09:51:52;;;;;;;0.98;0.75;;;47.40;19.90;;;;;;938133;151;26285;-77
2022/07/17 09:54:19;;;;;;;1.02;0.80;;;47.40;19.60;;;;;;938518;151;26233;-77
2022/07/17 09:56:45;;;;;;;1.27;0.85;;;47.20;19.70;;;;;;938088;151;26385;-77
2022/07/17 09:59:12;;;;;;;1.90;0.85;;;46.90;19.60;;;;;;937102;151;26286;-77
2022/07/17 10:01:38;;;;;;;1.70;0.88;;;46.60;19.70;;;;;;937397;151;26236;-77
2022/07/17 10:04:05;;;;;;;1.30;0.70;;;46.30;19.60;;;;;;935917;151;26338;-77
2022/07/17 10:06:32;;;;;;;1.45;0.80;;;46.00;19.60;;;;;;938034;151;26202;-77
2022/07/17 10:08:58;;;;;;;1.32;0.90;;;45.60;19.70;;;;;;936765;151;26286;-78
2022/07/17 10:11:25;;;;;;;0.98;0.70;;;45.10;19.60;;;;;;937250;150;26253;-77
2022/07/17 10:13:51;;;;;;;1.12;0.60;;;44.70;19.70;;;;;;938821;151;26771;-78
2022/07/17 10:16:27;;;;;;;0.90;0.62;;;44.20;19.70;;;;;;936353;151;26290;-77
2022/07/17 10:18:55;;;;;;;1.30;0.93;;;43.70;19.70;;;;;;937792;151;26346;-76
2022/07/17 10:21:21;;;;;;;1.45;0.72;;;43.10;19.90;;;;;;938412;151;26353;-78
2022/07/17 10:23:55;;;;;;;1.12;0.80;;;42.50;20.10;;;;;;936603;151;27411;-76
2022/07/17 10:26:31;;;;;;;1.40;0.93;;;41.90;20.10;;;;;;935776;151;26209;-77
2022/07/17 10:28:58;;;;;;;2.58;0.80;;;41.40;20.30;;;;;;936987;151;26294;-76
2022/07/17 10:31:24;;;;;;;1.35;0.80;;;40.90;20.30;;;;;;937100;151;26229;-77
2022/07/17 10:33:57;;;;;;;4.78;0.70;;;40.30;20.30;;;;;;936306;150;26393;-77
2022/07/17 10:36:32;;;;;;;1.07;0.72;;;39.80;20.40;;;;;;938222;151;26279;-78
2022/07/17 10:38:59;;;;;;;1.72;0.70;;;39.30;20.60;;;;;;936350;151;27845;-77
2022/07/17 10:41:26;;;;;;;0.60;0.57;;;38.80;20.80;;;;;;937588;151;27875;-76
2022/07/17 10:43:52;;;;;;;1.57;1.12;;;38.40;21.00;;;;;;937727;151;27477;-76
2022/07/17 10:46:18;;;;;;;2.08;0.72;;;38.00;21.10;;;;;;938414;151;27381;-77
2022/07/17 10:48:45;;;;;;;1.85;0.75;;;37.60;21.30;;;;;;938103;151;27426;-77
2022/07/17 10:51:11;;;;;;;1.42;0.88;;;37.20;21.40;;;;;;936410;149;27392;-77
2022/07/17 10:53:38;;;;;;;0.50;0.50;;;36.90;21.50;;;;;;937652;151;27350;-77
2022/07/17 10:56:05;;;;;;;1.02;0.65;;;36.70;21.40;;;;;;937987;151;27299;-75
2022/07/17 10:58:34;;;;;;;4.10;1.30;;;36.30;21.40;;;;;;937567;151;27373;-76
2022/07/17 11:01:07;;;;;;;2.50;0.80;;;36.00;21.40;;;;;;938221;151;27334;-77
2022/07/17 11:03:42;;;;;;;2.12;1.27;;;35.70;21.50;;;;;;936623;151;27461;-78
2022/07/17 11:06:08;;;;;;;1.87;0.90;;;35.40;21.70;;;;;;930215;151;27381;-77
2022/07/17 11:08:41;;;;;;;0.80;0.50;;;35.10;21.80;;;;;;938274;151;27350;-80
2022/07/17 11:11:07;;;;;;;1.30;0.85;;;34.80;21.90;;;;;;937160;151;28874;-79
2022/07/17 11:13:34;;;;;;;1.52;0.90;;;34.50;22.30;;;;;;919606;152;27397;-79
2022/07/17 11:16:01;;;;;;;1.45;1.05;;;34.30;22.60;;;;;;932095;149;27851;-78
2022/07/17 11:18:27;;;;;;;0.80;0.68;;;34.00;22.60;;;;;;932859;149;27376;-78
2022/07/17 11:20:54;;;;;;;1.85;1.07;;;33.80;22.70;;;;;;919164;152;27479;-78
2022/07/17 11:23:20;;;;;;;1.10;1.00;;;33.70;22.80;;;;;;938509;149;27444;-79
2022/07/17 11:25:59;;;;;;;1.47;0.93;;;33.40;22.90;;;;;;939247;149;27258;-78
2022/07/17 11:28:31;;;;;;;0.72;0.72;;;33.20;23.20;;;;;;934867;151;27328;-79
2022/07/17 11:30:58;;;;;;;0.80;0.80;;;33.00;23.20;;;;;;934050;151;27374;-78
2022/07/17 11:33:24;;;;;;;0.72;0.70;;;32.90;23.30;;;;;;934816;151;27379;-79
2022/07/17 11:35:51;;;;;;;2.20;0.80;;;32.70;23.50;;;;;;935541;151;27373;-78
2022/07/17 11:38:18;;;;;;;1.00;0.95;;;32.60;23.70;;;;;;918880;152;27638;-78
2022/07/17 11:40:47;;;;;;;0.90;0.72;;;32.50;23.80;;;;;;927390;150;27442;-79
2022/07/17 11:43:14;;;;;;;0.90;0.90;;;32.40;23.80;;;;;;928999;151;27965;-78
2022/07/17 11:45:40;;;;;;;1.12;0.98;;;32.40;24.00;;;;;;937397;149;27365;-78
2022/07/17 11:48:07;;;;;;;1.57;1.00;;;32.40;23.90;;;;;;938222;149;28575;-78
2022/07/17 11:50:33;;;;;;;0.90;0.72;;;32.40;24.00;;;;;;929487;152;27391;-79
2022/07/17 11:53:03;;;;;;;1.12;1.05;;;32.40;23.90;;;;;;926168;153;27412;-78
2022/07/17 11:55:36;;;;;;;2.92;0.95;;;32.30;23.70;;;;;;912954;156;27495;-78
2022/07/17 11:58:02;;;;;;;1.47;0.62;;;32.20;23.60;;;;;;939890;152;27388;-78
2022/07/17 12:00:29;;;;;;;1.32;0.60;;;32.10;23.70;;;;;;939170;152;27853;-79
2022/07/17 12:02:58;;;;;;;1.22;0.93;;;32.00;23.80;;;;;;939091;152;27366;-78
2022/07/17 12:05:27;;;;;;;0.82;0.57;;;31.90;23.70;;;;;;928059;154;27798;-78
2022/07/17 12:07:54;;;;;;;1.10;0.90;;;31.80;23.70;;;;;;923806;155;27377;-77
2022/07/17 12:10:23;;;;;;;0.80;0.78;;;31.60;23.70;;;;;;919980;154;27369;-79
2022/07/17 12:12:53;;;;;;;0.62;0.60;;;31.60;23.80;;;;;;924057;152;27341;-78
2022/07/17 12:15:19;;;;;;;1.15;0.95;;;31.50;23.60;;;;;;931698;154;27441;-78
2022/07/17 12:17:46;;;;;;;0.98;0.70;;;31.40;23.50;;;;;;931496;154;27310;-78
2022/07/17 12:20:12;;;;;;;1.40;0.90;;;31.40;23.50;;;;;;922110;153;27383;-77
2022/07/17 12:22:45;;;;;;;0.60;0.60;;;31.30;23.60;;;;;;918235;154;27377;-78
2022/07/17 12:25:11;;;;;;;1.82;0.53;;;31.30;23.80;;;;;;939692;152;27281;-78
2022/07/17 12:27:38;;;;;;;2.02;0.90;;;31.30;23.80;;;;;;937034;150;27310;-78
2022/07/17 12:30:04;;;;;;;0.72;0.70;;;31.20;23.70;;;;;;940047;152;27402;-79
2022/07/17 12:32:31;;;;;;;0.80;0.80;;;31.20;23.60;;;;;;940224;150;27781;-78
2022/07/17 12:34:58;;;;;;;0.65;0.65;;;31.30;24.10;;;;;;937837;150;27720;-79
2022/07/17 12:37:24;;;;;;;0.62;0.57;;;31.30;23.40;;;;;;940299;150;27448;-77
2022/07/17 12:39:51;;;;;;;1.05;0.85;;;31.30;23.40;;;;;;939804;150;27317;-78
2022/07/17 12:42:17;;;;;;;0.93;0.82;;;31.30;23.30;;;;;;939538;150;27246;-77
2022/07/17 12:44:45;;;;;;;0.57;0.57;;;31.20;23.30;;;;;;939538;150;27426;-78
2022/07/17 12:47:11;;;;;;;0.82;0.70;;;31.20;23.20;;;;;;925415;155;27358;-78